sensor_id;sensor_type;location;lat;lon;timestamp;pressure;altitude;pressure_sealevel;temperature;humidity
11487;BME280;10510;47.942;9.442;2023-03-01T00:00:22;95033.13;;;-1.71;100.00
11487;BME280;10510;47.942;9.442;2023-03-01T00:02:22;95024.53;;;-1.70;100.00
11487;BME280;10510;47.942;9.442;2023-03-01T00:04:23;95017.66;;;-1.70;100.00
11487;BME280;10510;47.942;9.442;2023-03-01T00:06:24;95018.34;;;-1.68;100.00
11487;BME280;10510;47.942;9.442;2023-03-01T00:08:25;95011.53;;;-1.67;100.00
11487;BME280;10510;47.942;9.442;2023-03-01T00:10:25;95009.78;;;-1.67;100.00
11487;BME280;10510;47.942;9.442;2023-03-01T00:12:26;95013.06;;;-1.65;100.00
11487;BME280;10510;47.942;9.442;2023-03-01T00:14:27;95013.88;;;-1.64;100.00
11487;BME280;10510;47.942;9.442;2023-03-01T00:16:30;95013.88;;;-1.64;100.00
11487;BME280;10510;47.942;9.442;2023-03-01T00:18:31;95013.88;;;-1.64;100.00
11487;BME280;10510;47.942;9.442;2023-03-01T00:20:32;95013.88;;;-1.64;100.00
11487;BME280;10510;47.942;9.442;2023-03-01T00:22:32;95008.03;;;-1.66;100.00
11487;BME280;10510;47.942;9.442;2023-03-01T00:24:32;95005.38;;;-1.65;100.00
11487;BME280;10510;47.942;9.442;2023-03-01T00:26:33;95000.13;;;-1.63;100.00
11487;BME280;10510;47.942;9.442;2023-03-01T00:28:33;95006.06;;;-1.63;100.00
11487;BME280;10510;47.942;9.442;2023-03-01T00:30:33;94995.00;;;-1.63;100.00
11487;BME280;10510;47.942;9.442;2023-03-01T00:32:34;94988.94;;;-1.62;100.00
11487;BME280;10510;47.942;9.442;2023-03-01T00:34:34;94993.25;;;-1.63;100.00
11487;BME280;10510;47.942;9.442;2023-03-01T00:36:36;94986.38;;;-1.62;100.00
11487;BME280;10510;47.942;9.442;2023-03-01T00:38:38;94993.16;;;-1.61;100.00
11487;BME280;10510;47.942;9.442;2023-03-01T00:40:39;94989.69;;;-1.60;100.00
11487;BME280;10510;47.942;9.442;2023-03-01T00:42:39;94987.94;;;-1.60;100.00
11487;BME280;10510;47.942;9.442;2023-03-01T00:44:39;94989.69;;;-1.60;100.00
11487;BME280;10510;47.942;9.442;2023-03-01T00:46:40;94985.28;;;-1.58;100.00
11487;BME280;10510;47.942;9.442;2023-03-01T00:48:40;94990.41;;;-1.58;100.00
11487;BME280;10510;47.942;9.442;2023-03-01T00:50:41;94985.28;;;-1.58;100.00
11487;BME280;10510;47.942;9.442;2023-03-01T00:52:41;94983.53;;;-1.57;100.00
11487;BME280;10510;47.942;9.442;2023-03-01T00:54:41;94980.97;;;-1.57;100.00
11487;BME280;10510;47.942;9.442;2023-03-01T00:56:42;94981.69;;;-1.55;100.00
11487;BME280;10510;47.942;9.442;2023-03-01T00:58:42;94985.06;;;-1.55;100.00
11487;BME280;10510;47.942;9.442;2023-03-01T01:00:42;94977.38;;;-1.55;100.00
11487;BME280;10510;47.942;9.442;2023-03-01T01:02:43;94978.19;;;-1.54;100.00
11487;BME280;10510;47.942;9.442;2023-03-01T01:04:43;94974.69;;;-1.53;100.00
11487;BME280;10510;47.942;9.442;2023-03-01T01:06:45;94976.56;;;-1.55;100.00
11487;BME280;10510;47.942;9.442;2023-03-01T01:08:46;94972.25;;;-1.55;100.00
11487;BME280;10510;47.942;9.442;2023-03-01T01:10:47;94968.75;;;-1.54;100.00
11487;BME280;10510;47.942;9.442;2023-03-01T01:12:47;94960.25;;;-1.54;100.00
11487;BME280;10510;47.942;9.442;2023-03-01T01:14:48;94965.28;;;-1.53;100.00
11487;BME280;10510;47.942;9.442;2023-03-01T01:16:48;94959.44;;;-1.55;100.00
11487;BME280;10510;47.942;9.442;2023-03-01T01:18:49;94955.13;;;-1.54;100.00
11487;BME280;10510;47.942;9.442;2023-03-01T01:20:49;94954.31;;;-1.55;100.00
11487;BME280;10510;47.942;9.442;2023-03-01T01:22:49;94956.88;;;-1.55;100.00
11487;BME280;10510;47.942;9.442;2023-03-01T01:24:51;94956.06;;;-1.55;100.00
11487;BME280;10510;47.942;9.442;2023-03-01T01:26:51;94943.44;;;-1.58;100.00
11487;BME280;10510;47.942;9.442;2023-03-01T01:28:52;94943.44;;;-1.58;100.00
11487;BME280;10510;47.942;9.442;2023-03-01T01:30:52;94940.88;;;-1.58;100.00
11487;BME280;10510;47.942;9.442;2023-03-01T01:32:52;94939.13;;;-1.58;100.00
11487;BME280;10510;47.942;9.442;2023-03-01T01:34:53;94930.72;;;-1.60;100.00
11487;BME280;10510;47.942;9.442;2023-03-01T01:36:53;94928.28;;;-1.62;100.00
11487;BME280;10510;47.942;9.442;2023-03-01T01:38:54;94928.16;;;-1.60;100.00
11487;BME280;10510;47.942;9.442;2023-03-01T01:40:54;94923.97;;;-1.61;100.00
11487;BME280;10510;47.942;9.442;2023-03-01T01:42:55;94924.03;;;-1.63;100.00
11487;BME280;10510;47.942;9.442;2023-03-01T01:45:32;94931.84;;;-1.64;100.00
11487;BME280;10510;47.942;9.442;2023-03-01T01:47:32;94912.16;;;-1.64;100.00
11487;BME280;10510;47.942;9.442;2023-03-01T01:51:39;94913.19;;;-1.66;100.00
11487;BME280;10510;47.942;9.442;2023-03-01T01:53:42;94906.50;;;-1.69;100.00
11487;BME280;10510;47.942;9.442;2023-03-01T01:55:48;94910.81;;;-1.69;100.00
11487;BME280;10510;47.942;9.442;2023-03-01T01:57:52;94911.75;;;-1.70;100.00
11487;BME280;10510;47.942;9.442;2023-03-01T01:59:57;94916.03;;;-1.71;100.00
11487;BME280;10510;47.942;9.442;2023-03-01T02:01:59;94908.56;;;-1.74;100.00
11487;BME280;10510;47.942;9.442;2023-03-01T02:04:00;94913.88;;;-1.77;100.00
11487;BME280;10510;47.942;9.442;2023-03-01T02:06:06;94907.22;;;-1.79;100.00
11487;BME280;10510;47.942;9.442;2023-03-01T02:08:14;94901.47;;;-1.83;100.00
11487;BME280;10510;47.942;9.442;2023-03-01T02:10:15;94914.41;;;-1.85;100.00
11487;BME280;10510;47.942;9.442;2023-03-01T02:12:18;94909.38;;;-1.86;100.00
11487;BME280;10510;47.942;9.442;2023-03-01T02:14:19;94907.84;;;-1.89;100.00
11487;BME280;10510;47.942;9.442;2023-03-01T02:16:20;94905.28;;;-1.89;100.00
11487;BME280;10510;47.942;9.442;2023-03-01T02:18:22;94902.91;;;-1.92;100.00
11487;BME280;10510;47.942;9.442;2023-03-01T02:22:32;94903.03;;;-1.93;100.00
11487;BME280;10510;47.942;9.442;2023-03-01T02:24:59;94905.69;;;-1.95;100.00
11487;BME280;10510;47.942;9.442;2023-03-01T02:27:01;94906.59;;;-1.96;100.00
11487;BME280;10510;47.942;9.442;2023-03-01T02:29:02;94903.22;;;-1.96;100.00
11487;BME280;10510;47.942;9.442;2023-03-01T02:31:08;94903.22;;;-1.96;100.00
11487;BME280;10510;47.942;9.442;2023-03-01T02:33:28;94904.13;;;-1.97;100.00
11487;BME280;10510;47.942;9.442;2023-03-01T02:35:38;94901.56;;;-1.97;100.00
11487;BME280;10510;47.942;9.442;2023-03-01T02:37:39;94897.19;;;-1.95;100.00
11487;BME280;10510;47.942;9.442;2023-03-01T02:39:46;94899.84;;;-1.97;100.00
11487;BME280;10510;47.942;9.442;2023-03-01T02:41:51;94892.25;;;-1.98;100.00
11487;BME280;10510;47.942;9.442;2023-03-01T02:43:52;94905.06;;;-1.98;100.00
11487;BME280;10510;47.942;9.442;2023-03-01T02:45:57;94887.13;;;-1.98;100.00
11487;BME280;10510;47.942;9.442;2023-03-01T02:47:58;94888.88;;;-1.99;100.00
11487;BME280;10510;47.942;9.442;2023-03-01T02:49:58;94887.13;;;-1.98;100.00
11487;BME280;10510;47.942;9.442;2023-03-01T02:52:08;94881.19;;;-1.99;100.00
11487;BME280;10510;47.942;9.442;2023-03-01T02:54:29;94890.63;;;-1.99;100.00
11487;BME280;10510;47.942;9.442;2023-03-01T02:56:30;94891.66;;;-2.02;100.00
11487;BME280;10510;47.942;9.442;2023-03-01T02:58:31;94889.16;;;-2.03;100.00
11487;BME280;10510;47.942;9.442;2023-03-01T03:00:38;94879.03;;;-2.05;100.00
11487;BME280;10510;47.942;9.442;2023-03-01T03:02:40;94877.28;;;-2.04;100.00
11487;BME280;10510;47.942;9.442;2023-03-01T03:04:40;94884.03;;;-2.03;100.00
11487;BME280;10510;47.942;9.442;2023-03-01T03:06:40;94879.84;;;-2.04;100.00
11487;BME280;10510;47.942;9.442;2023-03-01T03:08:41;94877.28;;;-2.04;100.00
11487;BME280;10510;47.942;9.442;2023-03-01T03:10:41;94876.47;;;-2.05;100.00
11487;BME280;10510;47.942;9.442;2023-03-01T03:12:43;94878.09;;;-2.04;100.00
11487;BME280;10510;47.942;9.442;2023-03-01T03:14:43;94879.72;;;-2.03;100.00
11487;BME280;10510;47.942;9.442;2023-03-01T03:16:46;94872.06;;;-2.03;100.00
11487;BME280;10510;47.942;9.442;2023-03-01T03:18:48;94864.38;;;-2.03;100.00
11487;BME280;10510;47.942;9.442;2023-03-01T03:20:49;94867.66;;;-2.01;100.00
11487;BME280;10510;47.942;9.442;2023-03-01T03:22:54;94864.19;;;-2.00;100.00
11487;BME280;10510;47.942;9.442;2023-03-01T03:24:55;94866.63;;;-1.98;100.00
11487;BME280;10510;47.942;9.442;2023-03-01T03:26:55;94865.81;;;-1.99;100.00
11487;BME280;10510;47.942;9.442;2023-03-01T03:28:56;94857.31;;;-1.99;100.00
11487;BME280;10510;47.942;9.442;2023-03-01T03:30:57;94871.75;;;-1.98;100.00
11487;BME280;10510;47.942;9.442;2023-03-01T03:32:59;94865.91;;;-2.00;100.00
11487;BME280;10510;47.942;9.442;2023-03-01T03:34:59;94868.38;;;-1.99;100.00
11487;BME280;10510;47.942;9.442;2023-03-01T03:36:59;94858.88;;;-1.97;100.00
11487;BME280;10510;47.942;9.442;2023-03-01T03:39:00;94860.50;;;-1.96;100.00
11487;BME280;10510;47.942;9.442;2023-03-01T03:41:03;94868.06;;;-1.94;100.00
11487;BME280;10510;47.942;9.442;2023-03-01T03:43:23;94860.28;;;-1.93;100.00
11487;BME280;10510;47.942;9.442;2023-03-01T03:45:23;94861.09;;;-1.92;100.00
11487;BME280;10510;47.942;9.442;2023-03-01T03:47:23;94857.72;;;-1.93;100.00
11487;BME280;10510;47.942;9.442;2023-03-01T03:49:24;94861.91;;;-1.92;100.00
11487;BME280;10510;47.942;9.442;2023-03-01T03:51:24;94857.53;;;-1.90;100.00
11487;BME280;10510;47.942;9.442;2023-03-01T03:53:26;94849.75;;;-1.88;100.00
11487;BME280;10510;47.942;9.442;2023-03-01T03:55:27;94852.19;;;-1.87;100.00
11487;BME280;10510;47.942;9.442;2023-03-01T03:57:30;94857.31;;;-1.87;100.00
11487;BME280;10510;47.942;9.442;2023-03-01T03:59:30;94850.44;;;-1.86;100.00
11487;BME280;10510;47.942;9.442;2023-03-01T04:01:31;94844.50;;;-1.87;100.00
11487;BME280;10510;47.942;9.442;2023-03-01T04:03:32;94847.88;;;-1.86;100.00
11487;BME280;10510;47.942;9.442;2023-03-01T04:05:33;94842.66;;;-1.85;100.00
11487;BME280;10510;47.942;9.442;2023-03-01T04:07:34;94837.63;;;-1.86;100.00
11487;BME280;10510;47.942;9.442;2023-03-01T04:09:35;94839.38;;;-1.87;100.00
11487;BME280;10510;47.942;9.442;2023-03-01T04:11:35;94844.50;;;-1.87;100.00
11487;BME280;10510;47.942;9.442;2023-03-01T04:13:35;94839.38;;;-1.87;100.00
11487;BME280;10510;47.942;9.442;2023-03-01T04:15:36;94827.38;;;-1.86;100.00
11487;BME280;10510;47.942;9.442;2023-03-01T04:17:36;94832.50;;;-1.86;100.00
11487;BME280;10510;47.942;9.442;2023-03-01T04:19:37;94842.47;;;-1.81;100.00
11487;BME280;10510;47.942;9.442;2023-03-01T04:21:37;94830.47;;;-1.81;100.00
11487;BME280;10510;47.942;9.442;2023-03-01T04:23:38;94829.66;;;-1.81;100.00
11487;BME280;10510;47.942;9.442;2023-03-01T04:25:41;94830.47;;;-1.81;100.00
11487;BME280;10510;47.942;9.442;2023-03-01T04:27:41;94828.91;;;-1.84;100.00
11487;BME280;10510;47.942;9.442;2023-03-01T04:29:42;94833.84;;;-1.80;100.00
11487;BME280;10510;47.942;9.442;2023-03-01T04:31:42;94829.66;;;-1.81;100.00
11487;BME280;10510;47.942;9.442;2023-03-01T04:35:46;94821.13;;;-1.82;100.00
11487;BME280;10510;47.942;9.442;2023-03-01T04:37:49;94815.16;;;-1.83;100.00
11487;BME280;10510;47.942;9.442;2023-03-01T04:39:49;94822.97;;;-1.84;100.00
11487;BME280;10510;47.942;9.442;2023-03-01T04:41:49;94822.97;;;-1.84;100.00
11487;BME280;10510;47.942;9.442;2023-03-01T04:43:50;94824.72;;;-1.85;100.00
11487;BME280;10510;47.942;9.442;2023-03-01T04:45:50;94828.09;;;-1.84;100.00
11487;BME280;10510;47.942;9.442;2023-03-01T04:47:50;94827.16;;;-1.83;100.00
11487;BME280;10510;47.942;9.442;2023-03-01T04:49:53;94827.38;;;-1.86;100.00
11487;BME280;10510;47.942;9.442;2023-03-01T04:51:54;94824.81;;;-1.86;100.00
11487;BME280;10510;47.942;9.442;2023-03-01T04:53:54;94828.19;;;-1.86;100.00
11487;BME280;10510;47.942;9.442;2023-03-01T04:55:55;94828.19;;;-1.86;100.00
11487;BME280;10510;47.942;9.442;2023-03-01T04:57:55;94828.09;;;-1.84;100.00
11487;BME280;10510;47.942;9.442;2023-03-01T04:59:56;94823.72;;;-1.82;100.00
11487;BME280;10510;47.942;9.442;2023-03-01T05:01:56;94820.28;;;-1.83;100.00
11487;BME280;10510;47.942;9.442;2023-03-01T05:03:57;94820.28;;;-1.83;100.00
11487;BME280;10510;47.942;9.442;2023-03-01T05:06:03;94825.41;;;-1.83;100.00
11487;BME280;10510;47.942;9.442;2023-03-01T05:08:07;94820.28;;;-1.83;100.00
11487;BME280;10510;47.942;9.442;2023-03-01T05:10:08;94815.16;;;-1.83;100.00
11487;BME280;10510;47.942;9.442;2023-03-01T05:12:09;94817.03;;;-1.85;100.00
11487;BME280;10510;47.942;9.442;2023-03-01T05:14:09;94816.22;;;-1.85;100.00
11487;BME280;10510;47.942;9.442;2023-03-01T05:16:10;94817.03;;;-1.85;100.00
11487;BME280;10510;47.942;9.442;2023-03-01T05:18:13;94813.75;;;-1.87;100.00
11487;BME280;10510;47.942;9.442;2023-03-01T05:20:14;94809.44;;;-1.86;100.00
11487;BME280;10510;47.942;9.442;2023-03-01T05:22:14;94815.38;;;-1.86;100.00
11487;BME280;10510;47.942;9.442;2023-03-01T05:24:14;94819.69;;;-1.86;100.00
11487;BME280;10510;47.942;9.442;2023-03-01T05:26:16;94806.88;;;-1.86;100.00
11487;BME280;10510;47.942;9.442;2023-03-01T05:28:19;94806.88;;;-1.86;100.00
11487;BME280;10510;47.942;9.442;2023-03-01T05:30:19;94812.72;;;-1.84;100.00
11487;BME280;10510;47.942;9.442;2023-03-01T05:32:20;94810.16;;;-1.84;100.00
11487;BME280;10510;47.942;9.442;2023-03-01T05:34:31;94805.03;;;-1.84;100.00
11487;BME280;10510;47.942;9.442;2023-03-01T05:36:31;94810.91;;;-1.82;100.00
11487;BME280;10510;47.942;9.442;2023-03-01T05:38:32;94815.91;;;-1.80;100.00
11487;BME280;10510;47.942;9.442;2023-03-01T05:40:33;94811.72;;;-1.81;100.00
11487;BME280;10510;47.942;9.442;2023-03-01T05:42:34;94808.22;;;-1.80;100.00
11487;BME280;10510;47.942;9.442;2023-03-01T05:44:34;94814.97;;;-1.79;100.00
11487;BME280;10510;47.942;9.442;2023-03-01T05:46:35;94798.09;;;-1.82;100.00
11487;BME280;10510;47.942;9.442;2023-03-01T05:48:35;94802.34;;;-1.83;100.00
11487;BME280;10510;47.942;9.442;2023-03-01T05:50:37;94798.16;;;-1.84;100.00
11487;BME280;10510;47.942;9.442;2023-03-01T05:52:39;94803.28;;;-1.84;100.00
11487;BME280;10510;47.942;9.442;2023-03-01T05:54:39;94795.50;;;-1.82;100.00
11487;BME280;10510;47.942;9.442;2023-03-01T05:56:39;94791.09;;;-1.80;100.00
11487;BME280;10510;47.942;9.442;2023-03-01T05:58:40;94793.78;;;-1.81;100.00
11487;BME280;10510;47.942;9.442;2023-03-01T06:00:41;94791.22;;;-1.81;100.00
11487;BME280;10510;47.942;9.442;2023-03-01T06:02:42;94789.53;;;-1.83;100.00
11487;BME280;10510;47.942;9.442;2023-03-01T06:04:42;94792.84;;;-1.80;100.00
11487;BME280;10510;47.942;9.442;2023-03-01T06:06:42;94796.22;;;-1.80;100.00
11487;BME280;10510;47.942;9.442;2023-03-01T06:08:42;94807.41;;;-1.81;100.00
11487;BME280;10510;47.942;9.442;2023-03-01T06:10:43;94809.84;;;-1.79;100.00
11487;BME280;10510;47.942;9.442;2023-03-01T06:12:44;94806.38;;;-1.78;100.00
11487;BME280;10510;47.942;9.442;2023-03-01T06:14:45;94800.31;;;-1.77;100.00
11487;BME280;10510;47.942;9.442;2023-03-01T06:16:47;94808.81;;;-1.77;100.00
11487;BME280;10510;47.942;9.442;2023-03-01T06:18:47;94800.31;;;-1.77;100.00
11487;BME280;10510;47.942;9.442;2023-03-01T06:20:54;94797.75;;;-1.77;100.00
11487;BME280;10510;47.942;9.442;2023-03-01T06:22:55;94800.31;;;-1.77;100.00
11487;BME280;10510;47.942;9.442;2023-03-01T06:24:56;94802.88;;;-1.77;100.00
11487;BME280;10510;47.942;9.442;2023-03-01T06:26:56;94803.69;;;-1.77;100.00
11487;BME280;10510;47.942;9.442;2023-03-01T06:28:56;94807.91;;;-1.76;100.00
11487;BME280;10510;47.942;9.442;2023-03-01T06:30:57;94801.84;;;-1.75;100.00
11487;BME280;10510;47.942;9.442;2023-03-01T06:32:57;94802.66;;;-1.74;100.00
11487;BME280;10510;47.942;9.442;2023-03-01T06:35:00;94801.03;;;-1.75;100.00
11487;BME280;10510;47.942;9.442;2023-03-01T06:37:01;94801.03;;;-1.75;100.00
11487;BME280;10510;47.942;9.442;2023-03-01T06:39:05;94793.34;;;-1.75;100.00
11487;BME280;10510;47.942;9.442;2023-03-01T06:41:06;94807.78;;;-1.74;100.00
11487;BME280;10510;47.942;9.442;2023-03-01T06:43:06;94791.59;;;-1.75;100.00
11487;BME280;10510;47.942;9.442;2023-03-01T06:45:09;94801.75;;;-1.73;100.00
11487;BME280;10510;47.942;9.442;2023-03-01T06:47:09;94804.31;;;-1.73;100.00
11487;BME280;10510;47.942;9.442;2023-03-01T06:49:09;94802.66;;;-1.74;100.00
11487;BME280;10510;47.942;9.442;2023-03-01T06:51:10;94801.63;;;-1.72;100.00
11487;BME280;10510;47.942;9.442;2023-03-01T06:53:10;94804.13;;;-1.70;100.00
11487;BME280;10510;47.942;9.442;2023-03-01T06:55:12;94796.41;;;-1.70;100.00
11487;BME280;10510;47.942;9.442;2023-03-01T06:57:12;94796.41;;;-1.70;100.00
11487;BME280;10510;47.942;9.442;2023-03-01T06:59:13;94799.00;;;-1.70;100.00
11487;BME280;10510;47.942;9.442;2023-03-01T07:01:13;94799.88;;;-1.71;100.00
11487;BME280;10510;47.942;9.442;2023-03-01T07:03:13;94799.88;;;-1.71;100.00
11487;BME280;10510;47.942;9.442;2023-03-01T07:05:14;94800.69;;;-1.71;100.00
11487;BME280;10510;47.942;9.442;2023-03-01T07:07:14;94809.94;;;-1.68;100.00
11487;BME280;10510;47.942;9.442;2023-03-01T07:09:14;94801.44;;;-1.69;100.00
11487;BME280;10510;47.942;9.442;2023-03-01T07:11:19;94804.00;;;-1.69;100.00
11487;BME280;10510;47.942;9.442;2023-03-01T07:13:19;94797.94;;;-1.68;100.00
11487;BME280;10510;47.942;9.442;2023-03-01T07:15:20;94801.44;;;-1.69;100.00
11487;BME280;10510;47.942;9.442;2023-03-01T07:17:20;94803.28;;;-1.71;100.00
11487;BME280;10510;47.942;9.442;2023-03-01T07:19:21;94798.88;;;-1.69;100.00
11487;BME280;10510;47.942;9.442;2023-03-01T07:21:22;94793.75;;;-1.69;100.00
11487;BME280;10510;47.942;9.442;2023-03-01T07:23:22;94806.56;;;-1.69;100.00
11487;BME280;10510;47.942;9.442;2023-03-01T07:25:22;94796.31;;;-1.69;100.00
11487;BME280;10510;47.942;9.442;2023-03-01T07:27:23;94795.50;;;-1.69;100.00
11487;BME280;10510;47.942;9.442;2023-03-01T07:29:23;94799.69;;;-1.68;100.00
11487;BME280;10510;47.942;9.442;2023-03-01T07:31:23;94792.72;;;-1.66;100.00
11487;BME280;10510;47.942;9.442;2023-03-01T07:33:23;94798.56;;;-1.64;100.00
11487;BME280;10510;47.942;9.442;2023-03-01T07:35:26;94784.94;;;-1.65;100.00
11487;BME280;10510;47.942;9.442;2023-03-01T07:37:26;94795.06;;;-1.63;100.00
11487;BME280;10510;47.942;9.442;2023-03-01T07:39:27;94787.28;;;-1.62;100.00
11487;BME280;10510;47.942;9.442;2023-03-01T07:41:27;94793.91;;;-1.59;100.00
11487;BME280;10510;47.942;9.442;2023-03-01T07:43:29;94787.88;;;-1.58;100.00
11487;BME280;10510;47.942;9.442;2023-03-01T07:45:29;94795.38;;;-1.55;100.00
11487;BME280;10510;47.942;9.442;2023-03-01T07:47:29;94795.25;;;-1.53;100.00
11487;BME280;10510;47.942;9.442;2023-03-01T07:49:30;94791.88;;;-1.54;100.00
11487;BME280;10510;47.942;9.442;2023-03-01T07:51:30;94794.22;;;-1.51;100.00
11487;BME280;10510;47.942;9.442;2023-03-01T07:53:31;94794.13;;;-1.49;100.00
11487;BME280;10510;47.942;9.442;2023-03-01T07:55:31;94778.75;;;-1.49;100.00
11487;BME280;10510;47.942;9.442;2023-03-01T07:57:31;94783.88;;;-1.49;100.00
11487;BME280;10510;47.942;9.442;2023-03-01T07:59:32;94783.88;;;-1.49;100.00
11487;BME280;10510;47.942;9.442;2023-03-01T08:01:32;94783.97;;;-1.51;100.00
11487;BME280;10510;47.942;9.442;2023-03-01T08:03:33;94779.66;;;-1.50;100.00
11487;BME280;10510;47.942;9.442;2023-03-01T08:05:34;94786.44;;;-1.49;100.00
11487;BME280;10510;47.942;9.442;2023-03-01T08:07:34;94783.75;;;-1.48;100.00
11487;BME280;10510;47.942;9.442;2023-03-01T08:09:35;94781.09;;;-1.46;100.00
11487;BME280;10510;47.942;9.442;2023-03-01T08:11:37;94775.97;;;-1.46;100.00
11487;BME280;10510;47.942;9.442;2023-03-01T08:13:37;94769.09;;;-1.46;100.00
11487;BME280;10510;47.942;9.442;2023-03-01T08:15:38;94777.59;;;-1.45;100.00
11487;BME280;10510;47.942;9.442;2023-03-01T08:17:38;94780.16;;;-1.45;100.00
11487;BME280;10510;47.942;9.442;2023-03-01T08:19:38;94781.78;;;-1.44;100.00
11487;BME280;10510;47.942;9.442;2023-03-01T08:21:39;94784.16;;;-1.41;100.00
11487;BME280;10510;47.942;9.442;2023-03-01T08:23:40;94774.59;;;-1.39;100.00
11487;BME280;10510;47.942;9.442;2023-03-01T08:25:40;94774.81;;;-1.42;100.00
11487;BME280;10510;47.942;9.442;2023-03-01T08:27:40;94779.13;;;-1.43;100.00
11487;BME280;10510;47.942;9.442;2023-03-01T08:29:41;94773.91;;;-1.41;100.00
11487;BME280;10510;47.942;9.442;2023-03-01T08:31:41;94780.53;;;-1.39;100.00
11487;BME280;10510;47.942;9.442;2023-03-01T08:33:42;94766.69;;;-1.36;100.00
11487;BME280;10510;47.942;9.442;2023-03-01T08:35:42;94776.72;;;-1.33;100.00
11487;BME280;10510;47.942;9.442;2023-03-01T08:37:42;94763.81;;;-1.31;100.00
11487;BME280;10510;47.942;9.442;2023-03-01T08:39:42;94763.69;;;-1.30;100.00
11487;BME280;10510;47.942;9.442;2023-03-01T08:41:43;94771.06;;;-1.25;100.00
11487;BME280;10510;47.942;9.442;2023-03-01T08:43:43;94757.31;;;-1.24;100.00
11487;BME280;10510;47.942;9.442;2023-03-01T08:45:44;94762.34;;;-1.23;100.00
11487;BME280;10510;47.942;9.442;2023-03-01T08:47:44;94759.66;;;-1.21;100.00
11487;BME280;10510;47.942;9.442;2023-03-01T08:49:45;94764.56;;;-1.18;100.00
11487;BME280;10510;47.942;9.442;2023-03-01T08:51:46;94754.31;;;-1.18;100.00
11487;BME280;10510;47.942;9.442;2023-03-01T08:53:47;94763.53;;;-1.16;100.00
11487;BME280;10510;47.942;9.442;2023-03-01T08:55:48;94765.06;;;-1.13;100.00
11487;BME280;10510;47.942;9.442;2023-03-01T08:57:48;94764.03;;;-1.10;100.00
11487;BME280;10510;47.942;9.442;2023-03-01T08:59:48;94761.34;;;-1.09;100.00
11487;BME280;10510;47.942;9.442;2023-03-01T09:01:49;94771.28;;;-1.04;100.00
11487;BME280;10510;47.942;9.442;2023-03-01T09:03:49;94767.09;;;-1.05;100.00
11487;BME280;10510;47.942;9.442;2023-03-01T09:05:50;94768.72;;;-1.04;100.00
11487;BME280;10510;47.942;9.442;2023-03-01T09:07:50;94772.22;;;-1.05;100.00
11487;BME280;10510;47.942;9.442;2023-03-01T09:09:50;94768.63;;;-1.03;100.00
11487;BME280;10510;47.942;9.442;2023-03-01T09:11:53;94753.22;;;-1.03;100.00
11487;BME280;10510;47.942;9.442;2023-03-01T09:13:53;94761.63;;;-1.01;100.00
11487;BME280;10510;47.942;9.442;2023-03-01T09:15:54;94751.03;;;-0.96;100.00
11487;BME280;10510;47.942;9.442;2023-03-01T09:17:54;94747.31;;;-0.92;100.00
11487;BME280;10510;47.942;9.442;2023-03-01T09:19:54;94742.75;;;-0.88;100.00
11487;BME280;10510;47.942;9.442;2023-03-01T09:21:54;94742.06;;;-0.90;100.00
11487;BME280;10510;47.942;9.442;2023-03-01T09:23:57;94739.50;;;-0.90;100.00
11487;BME280;10510;47.942;9.442;2023-03-01T09:25:57;94751.41;;;-0.89;100.00
11487;BME280;10510;47.942;9.442;2023-03-01T09:27:58;94738.78;;;-0.93;100.00
11487;BME280;10510;47.942;9.442;2023-03-01T09:29:58;94739.72;;;-0.94;100.00
11487;BME280;10510;47.942;9.442;2023-03-01T09:31:58;94745.22;;;-0.87;100.00
11487;BME280;10510;47.942;9.442;2023-03-01T09:33:58;94746.53;;;-0.81;100.00
11487;BME280;10510;47.942;9.442;2023-03-01T09:35:59;94751.44;;;-0.78;100.00
11487;BME280;10510;47.942;9.442;2023-03-01T09:38:00;94748.97;;;-0.80;100.00
11487;BME280;10510;47.942;9.442;2023-03-01T09:40:00;94747.25;;;-0.79;100.00
11487;BME280;10510;47.942;9.442;2023-03-01T09:42:02;94747.94;;;-0.77;100.00
11487;BME280;10510;47.942;9.442;2023-03-01T09:46:33;94743.41;;;-0.74;100.00
11487;BME280;10510;47.942;9.442;2023-03-01T09:48:48;94747.50;;;-0.71;100.00
11487;BME280;10510;47.942;9.442;2023-03-01T09:50:51;94759.19;;;-0.67;100.00
11487;BME280;10510;47.942;9.442;2023-03-01T09:53:05;94752.41;;;-0.68;100.00
11487;BME280;10510;47.942;9.442;2023-03-01T09:55:13;94751.13;;;-0.62;100.00
11487;BME280;10510;47.942;9.442;2023-03-01T09:57:48;94748.47;;;-0.61;100.00
11487;BME280;10510;47.942;9.442;2023-03-01T10:00:01;94744.97;;;-0.60;100.00
11487;BME280;10510;47.942;9.442;2023-03-01T10:02:33;94733.38;;;-0.65;100.00
11487;BME280;10510;47.942;9.442;2023-03-01T10:04:48;94730.00;;;-0.66;100.00
11487;BME280;10510;47.942;9.442;2023-03-01T10:09:16;94728.97;;;-0.63;100.00
11487;BME280;10510;47.942;9.442;2023-03-01T10:11:23;94735.16;;;-0.55;100.00
11487;BME280;10510;47.942;9.442;2023-03-01T10:13:34;94728.53;;;-0.46;100.00
11487;BME280;10510;47.942;9.442;2023-03-01T10:15:45;94724.81;;;-0.42;100.00
11487;BME280;10510;47.942;9.442;2023-03-01T10:18:10;94723.03;;;-0.41;100.00
11487;BME280;10510;47.942;9.442;2023-03-01T10:22:28;94723.66;;;-0.38;100.00
11487;BME280;10510;47.942;9.442;2023-03-01T10:24:32;94728.56;;;-0.35;100.00
11487;BME280;10510;47.942;9.442;2023-03-01T10:26:55;94723.66;;;-0.38;100.00
11487;BME280;10510;47.942;9.442;2023-03-01T10:29:08;94730.75;;;-0.41;100.00
11487;BME280;10510;47.942;9.442;2023-03-01T10:31:13;94736.81;;;-0.42;100.00
11487;BME280;10510;47.942;9.442;2023-03-01T10:33:20;94724.94;;;-0.43;100.00
11487;BME280;10510;47.942;9.442;2023-03-01T10:35:25;94729.84;;;-0.40;100.00
11487;BME280;10510;47.942;9.442;2023-03-01T10:37:25;94722.81;;;-0.38;100.00
11487;BME280;10510;47.942;9.442;2023-03-01T10:39:27;94722.81;;;-0.38;100.00
11487;BME280;10510;47.942;9.442;2023-03-01T10:41:27;94718.63;;;-0.39;100.00
11487;BME280;10510;47.942;9.442;2023-03-01T10:43:43;94719.34;;;-0.37;100.00
11487;BME280;10510;47.942;9.442;2023-03-01T10:45:44;94718.16;;;-0.33;100.00
11487;BME280;10510;47.942;9.442;2023-03-01T10:47:44;94719.59;;;-0.29;100.00
11487;BME280;10510;47.942;9.442;2023-03-01T10:51:53;94712.31;;;-0.24;100.00
11487;BME280;10510;47.942;9.442;2023-03-01T10:53:54;94714.31;;;-0.28;100.00